createdAt,value
2023-01-20T00:04:14.109Z,23.58
2023-01-20T00:06:50.919Z,22.67
2023-01-20T00:10:15.500Z,21.08
2023-01-20T00:12:56.663Z,20.17
2023-01-20T00:24:19.481Z,23.73
2023-01-20T00:26:56.715Z,24.13
2023-01-20T00:34:00.133Z,22.73
2023-01-20T00:36:59.422Z,21.67
2023-01-20T00:43:56.611Z,21.15
2023-01-20T00:46:24.645Z,21.75
2023-01-20T00:48:55.362Z,21.38
2023-01-20T00:51:34.796Z,22.08
2023-01-20T00:54:06.718Z,23.30
2023-01-20T00:56:37.520Z,21.83
2023-01-20T00:59:06.091Z,22.20
2023-01-20T01:01:36.277Z,21.73
2023-01-20T01:04:05.713Z,24.10
2023-01-20T01:06:33.171Z,20.75
2023-01-20T01:09:02.060Z,21.20
2023-01-20T01:11:57.362Z,20.17
2023-01-20T01:14:30.952Z,20.85
2023-01-20T01:17:01.053Z,20.95
2023-01-20T01:19:28.832Z,20.25
2023-01-20T01:22:01.665Z,21.92
2023-01-20T01:24:31.122Z,21.20
2023-01-20T01:27:04.676Z,19.02
2023-01-20T01:29:31.917Z,20.10
2023-01-20T01:31:59.138Z,18.50
2023-01-20T01:34:27.099Z,22.13
2023-01-20T01:36:56.587Z,20.55
2023-01-20T01:42:23.175Z,20.75
2023-01-20T01:45:11.038Z,17.45
2023-01-20T01:47:59.768Z,21.50
2023-01-20T01:50:39.255Z,21.80
2023-01-20T01:53:07.582Z,22.65
2023-01-20T01:55:42.600Z,22.00
2023-01-20T01:58:17.399Z,20.30
2023-01-20T02:00:47.950Z,23.15
2023-01-20T02:03:15.163Z,21.33
2023-01-20T02:05:49.371Z,21.38
2023-01-20T02:08:17.873Z,21.88
2023-01-20T02:10:48.007Z,22.65
2023-01-20T02:13:16.282Z,20.75
2023-01-20T02:16:24.261Z,21.55
2023-01-20T02:19:20.229Z,20.35
2023-01-20T02:22:27.582Z,19.40
2023-01-20T02:25:03.765Z,22.85
2023-01-20T02:27:46.785Z,22.23
2023-01-20T02:30:46.527Z,24.23
2023-01-20T02:33:30.443Z,16.33
2023-01-20T02:36:53.842Z,21.63
2023-01-20T02:39:51.925Z,22.23
2023-01-20T02:42:33.013Z,19.30
2023-01-20T02:45:44.932Z,22.95
2023-01-20T02:48:24.557Z,21.70
2023-01-20T02:51:13.545Z,20.65
2023-01-20T02:53:59.123Z,22.75
2023-01-20T02:56:31.964Z,19.85
2023-01-20T02:59:11.206Z,21.42
2023-01-20T03:01:55.759Z,19.48
2023-01-20T03:04:30.477Z,19.80
2023-01-20T03:07:00.842Z,21.38
2023-01-20T03:09:41.965Z,21.10
2023-01-20T03:12:26.323Z,19.88
2023-01-20T03:14:54.999Z,22.98
2023-01-20T03:17:32.798Z,23.98
2023-01-20T03:20:02.789Z,21.27
2023-01-20T03:22:34.160Z,22.42
2023-01-20T03:25:04.222Z,22.60
2023-01-20T03:27:33.254Z,22.80
2023-01-20T03:30:42.767Z,23.95
2023-01-20T03:33:36.807Z,21.08
2023-01-20T03:36:04.669Z,21.42
2023-01-20T03:38:34.142Z,24.77
2023-01-20T03:41:17.346Z,21.88
2023-01-20T03:44:23.364Z,24.77
2023-01-20T03:47:18.125Z,23.60
2023-01-20T03:49:57.255Z,23.70
2023-01-20T03:53:05.169Z,22.63
2023-01-20T04:08:47.113Z,14.15
2023-01-20T04:11:22.424Z,24.13
2023-01-20T04:14:09.422Z,21.48
2023-01-20T04:21:10.644Z,22.35
2023-01-20T04:24:09.090Z,21.30
2023-01-20T04:26:39.519Z,22.15
2023-01-20T04:29:11.898Z,18.50
2023-01-20T04:31:42.357Z,18.58
2023-01-20T04:34:13.867Z,23.70
2023-01-20T04:36:41.484Z,23.92
2023-01-20T04:39:11.022Z,22.63
2023-01-20T04:46:06.603Z,17.33
2023-01-20T04:48:35.320Z,20.77
2023-01-20T04:51:54.115Z,22.73
2023-01-20T04:54:26.189Z,23.65
2023-01-20T04:59:26.430Z,17.35
2023-01-20T05:01:57.084Z,23.27
2023-01-20T05:04:25.632Z,22.83
2023-01-20T05:06:58.571Z,19.40
2023-01-20T05:13:25.989Z,22.48
2023-01-20T05:15:57.759Z,16.83
2023-01-20T05:18:28.691Z,22.70
2023-01-20T05:20:59.744Z,22.45
2023-01-20T05:23:30.049Z,20.90
2023-01-20T05:25:57.732Z,24.95
2023-01-20T05:28:30.088Z,25.00
2023-01-20T05:31:23.694Z,24.27
2023-01-20T05:36:20.636Z,21.95
2023-01-20T05:38:49.013Z,24.77
2023-01-20T05:41:16.563Z,24.75
2023-01-20T05:43:45.871Z,22.35
2023-01-20T05:46:18.086Z,23.00
2023-01-20T05:48:45.281Z,23.42
2023-01-20T05:51:13.655Z,23.50
2023-01-20T05:53:40.848Z,25.23
2023-01-20T05:56:09.535Z,23.85
2023-01-20T05:58:40.324Z,22.92
2023-01-20T06:01:10.927Z,14.50
2023-01-20T06:03:51.202Z,21.75
2023-01-20T06:06:19.631Z,24.02
2023-01-20T06:08:46.936Z,22.50
2023-01-20T06:11:15.729Z,24.20
2023-01-20T06:13:43.654Z,21.52
2023-01-20T06:16:10.824Z,24.70
2023-01-20T06:18:39.610Z,23.77
2023-01-20T06:21:07.842Z,21.20
2023-01-20T06:23:36.049Z,18.40
2023-01-20T06:26:06.452Z,18.58
2023-01-20T06:28:36.302Z,15.35
2023-01-20T06:31:14.561Z,19.60
2023-01-20T06:33:42.502Z,19.58
2023-01-20T06:36:13.925Z,22.98
2023-01-20T06:38:42.733Z,21.88
2023-01-20T06:41:11.304Z,17.92
2023-01-20T06:43:42.785Z,20.85
2023-01-20T06:46:15.125Z,20.75
2023-01-20T06:48:45.867Z,18.30
2023-01-20T06:51:20.682Z,24.33
2023-01-20T06:53:48.125Z,24.40
2023-01-20T06:56:16.085Z,19.63
2023-01-20T06:58:43.050Z,23.65
2023-01-20T07:01:15.895Z,24.73
2023-01-20T07:03:43.695Z,12.77
2023-01-20T07:06:20.221Z,24.00
2023-01-20T07:08:47.251Z,22.23
2023-01-20T07:11:14.199Z,23.05
2023-01-20T07:13:42.385Z,17.33
2023-01-20T07:16:12.621Z,20.98
2023-01-20T07:18:41.795Z,23.80
2023-01-20T07:21:12.113Z,17.92
2023-01-20T07:23:39.469Z,18.85
2023-01-20T07:26:14.418Z,14.50
2023-01-20T07:28:42.539Z,22.88
2023-01-20T07:31:18.685Z,22.95
2023-01-20T07:33:47.156Z,21.45
2023-01-20T07:36:16.033Z,23.42
2023-01-20T07:38:43.404Z,24.52
2023-01-20T07:41:15.952Z,19.10
2023-01-20T07:43:47.867Z,20.10
2023-01-20T07:46:17.799Z,12.57
2023-01-20T07:48:44.670Z,19.98
2023-01-20T07:51:14.974Z,16.98
2023-01-20T07:53:47.243Z,23.40
2023-01-20T07:56:17.948Z,17.17
2023-01-20T07:58:45.512Z,25.80
2023-01-20T08:01:16.512Z,21.92
2023-01-20T08:03:44.323Z,21.10
2023-01-20T08:06:13.977Z,20.52
2023-01-20T08:08:43.093Z,20.98
2023-01-20T08:11:13.663Z,22.45
2023-01-20T08:13:44.252Z,21.65
2023-01-20T08:16:12.961Z,12.95
2023-01-20T08:18:39.917Z,14.63
2023-01-20T08:21:17.000Z,20.02
2023-01-20T08:23:44.127Z,17.98
2023-01-20T08:26:37.235Z,18.65
2023-01-20T08:29:09.456Z,20.23
2023-01-20T08:31:37.677Z,20.20
2023-01-20T08:34:05.163Z,21.65
2023-01-20T08:36:35.231Z,18.42
2023-01-20T08:39:05.222Z,14.93
2023-01-20T08:41:57.193Z,18.60
2023-01-20T08:44:27.546Z,19.13
2023-01-20T08:46:58.193Z,17.45
2023-01-20T08:49:26.617Z,20.35
2023-01-20T08:51:53.743Z,19.88
2023-01-20T08:54:21.696Z,13.60
2023-01-20T08:56:52.883Z,16.63
2023-01-20T08:59:20.530Z,16.38
2023-01-20T09:01:48.946Z,16.58
2023-01-20T09:04:18.168Z,14.55
2023-01-20T09:06:48.504Z,18.02
2023-01-20T09:09:18.184Z,18.00
2023-01-20T09:11:50.688Z,18.67
2023-01-20T09:16:49.110Z,12.70
2023-01-20T09:19:16.486Z,11.68
2023-01-20T09:21:44.399Z,17.80
2023-01-20T09:24:11.885Z,14.52
2023-01-20T09:26:39.061Z,17.75
2023-01-20T09:29:10.382Z,15.93
2023-01-20T09:31:51.776Z,17.40
2023-01-20T09:34:27.461Z,17.77
2023-01-20T09:36:58.648Z,14.02
2023-01-20T09:39:44.270Z,16.55
2023-01-20T09:43:07.997Z,10.02
2023-01-20T09:48:48.015Z,8.82
2023-01-20T09:51:42.981Z,13.90
2023-01-20T09:54:37.568Z,10.73
2023-01-20T09:57:08.608Z,14.27
2023-01-20T09:59:50.760Z,11.30
2023-01-20T10:02:24.116Z,13.48
2023-01-20T10:05:17.167Z,12.93
2023-01-20T10:10:28.751Z,13.25
2023-01-20T10:13:01.727Z,15.68
2023-01-20T10:15:36.784Z,13.10
2023-01-20T10:18:06.407Z,9.73
2023-01-20T10:20:39.395Z,14.57
2023-01-20T10:23:22.475Z,13.07
2023-01-20T10:25:57.534Z,9.32
2023-01-20T10:28:30.543Z,14.38
2023-01-20T10:31:04.173Z,14.90
2023-01-20T10:33:38.818Z,7.07
2023-01-20T10:36:16.750Z,12.82
2023-01-20T10:38:54.320Z,14.90
2023-01-20T10:41:49.043Z,10.10
2023-01-20T10:44:16.983Z,12.63
2023-01-20T10:47:18.133Z,12.20
2023-01-20T10:50:14.182Z,13.20
2023-01-20T10:53:11.845Z,12.20
2023-01-20T10:56:22.537Z,11.95
2023-01-20T10:58:56.767Z,11.88
2023-01-20T11:01:25.129Z,12.63
2023-01-20T11:03:54.107Z,12.50
2023-01-20T11:06:25.501Z,12.05
2023-01-20T11:08:55.342Z,12.48
2023-01-20T11:11:25.626Z,11.38
2023-01-20T11:13:55.009Z,11.98
2023-01-20T11:16:25.740Z,10.68
2023-01-20T11:18:58.988Z,11.23
2023-01-20T11:21:29.479Z,9.80
2023-01-20T11:23:58.244Z,11.38
2023-01-20T11:26:32.536Z,11.23
2023-01-20T11:29:19.849Z,11.35
2023-01-20T11:31:49.472Z,10.77
2023-01-20T11:34:28.481Z,11.02
2023-01-20T11:37:06.397Z,9.82
2023-01-20T11:39:56.209Z,10.90
2023-01-20T11:42:36.717Z,9.73
2023-01-20T11:45:20.787Z,10.57
2023-01-20T11:48:04.525Z,10.50
2023-01-20T11:50:54.369Z,11.15
2023-01-20T11:53:26.554Z,11.00
2023-01-20T11:56:05.283Z,11.18
2023-01-20T11:58:48.509Z,10.25
2023-01-20T12:01:31.346Z,10.57
2023-01-20T12:04:20.150Z,9.35
2023-01-20T12:07:11.673Z,10.48
2023-01-20T12:09:47.189Z,10.63
2023-01-20T12:12:23.514Z,10.30
2023-01-20T12:15:01.320Z,10.00
2023-01-20T12:17:30.986Z,10.70
2023-01-20T12:20:17.876Z,10.68
2023-01-20T12:23:01.349Z,9.45
2023-01-20T12:25:36.876Z,9.13
2023-01-20T12:28:18.668Z,9.98
2023-01-20T12:31:12.736Z,10.70
2023-01-20T12:33:43.553Z,9.40
2023-01-20T12:36:41.312Z,9.88
2023-01-20T12:39:21.452Z,9.82
2023-01-20T12:42:05.936Z,10.25
2023-01-20T12:44:47.717Z,8.88
2023-01-20T12:47:52.305Z,9.02
2023-01-20T12:50:36.981Z,8.18
2023-01-20T12:53:25.467Z,8.02
2023-01-20T12:56:08.154Z,7.95
2023-01-20T12:58:53.867Z,7.18
2023-01-20T13:01:56.255Z,7.88
2023-01-20T13:04:47.041Z,6.97
2023-01-20T13:07:23.557Z,8.80
2023-01-20T13:10:50.933Z,8.25
2023-01-20T13:13:55.860Z,7.68
2023-01-20T13:17:05.606Z,7.00
2023-01-20T13:19:43.075Z,7.20
2023-01-20T13:22:20.806Z,6.95
2023-01-20T13:24:53.623Z,7.38
2023-01-20T13:27:37.799Z,6.63
2023-01-20T13:30:08.534Z,7.43
2023-01-20T13:32:43.782Z,6.88
2023-01-20T13:35:34.256Z,7.40
2023-01-20T13:38:04.052Z,7.95
2023-01-20T13:40:47.203Z,5.40
2023-01-20T13:43:32.385Z,6.43
2023-01-20T13:46:03.736Z,7.35
2023-01-20T13:48:34.989Z,7.57
2023-01-20T13:51:26.854Z,7.55
2023-01-20T13:54:15.189Z,6.50
2023-01-20T13:56:45.903Z,7.15
2023-01-20T13:59:16.051Z,6.35
2023-01-20T14:01:47.146Z,7.35
2023-01-20T14:04:21.777Z,7.43
2023-01-20T14:06:51.837Z,5.85
2023-01-20T14:09:25.355Z,7.25
2023-01-20T14:11:58.184Z,6.95
2023-01-20T14:14:28.650Z,7.20
2023-01-20T14:17:01.198Z,7.78
2023-01-20T14:19:32.434Z,7.47
2023-01-20T14:22:04.370Z,7.30
2023-01-20T14:24:36.510Z,6.85
2023-01-20T14:27:59.831Z,7.10
2023-01-20T14:30:30.332Z,6.93
2023-01-20T14:33:26.807Z,6.97
2023-01-20T14:35:54.005Z,6.22
2023-01-20T14:38:22.654Z,6.97
2023-01-20T14:40:50.261Z,5.38
2023-01-20T14:43:20.285Z,5.40
2023-01-20T14:45:54.214Z,5.20
2023-01-20T14:48:33.926Z,4.85
2023-01-20T14:51:04.392Z,4.10
2023-01-20T14:53:31.552Z,4.78
2023-01-20T14:56:16.878Z,4.10
2023-01-20T14:58:49.097Z,3.40
2023-01-20T15:01:23.547Z,4.38
2023-01-20T15:03:59.216Z,4.00
2023-01-20T15:06:27.639Z,3.78
2023-01-20T15:09:28.474Z,3.35
2023-01-20T15:12:42.637Z,3.83
2023-01-20T15:15:22.994Z,3.03
2023-01-20T15:18:21.470Z,3.53
2023-01-20T15:21:11.748Z,3.47
2023-01-20T15:23:51.210Z,3.88
2023-01-20T15:26:28.950Z,3.20
2023-01-20T15:28:59.392Z,3.83
2023-01-20T15:31:26.700Z,3.47
2023-01-20T15:34:08.454Z,3.67
2023-01-20T15:36:37.337Z,3.78
2023-01-20T15:39:06.407Z,3.55
2023-01-20T15:41:40.854Z,3.78
2023-01-20T15:44:37.302Z,2.90
2023-01-20T15:47:34.737Z,3.72
2023-01-20T15:50:54.529Z,3.65
2023-01-20T15:53:21.563Z,4.05
2023-01-20T15:55:51.893Z,4.47
2023-01-20T15:58:32.832Z,4.63
2023-01-20T16:01:01.015Z,4.47
2023-01-20T16:03:33.701Z,4.07
2023-01-20T16:06:02.621Z,4.15
2023-01-20T16:08:38.076Z,5.00
2023-01-20T16:11:08.100Z,4.45
2023-01-20T16:13:35.757Z,5.63
2023-01-20T16:19:06.940Z,4.83
2023-01-20T16:21:37.508Z,5.95
2023-01-20T16:24:05.881Z,4.78
2023-01-20T16:26:34.741Z,5.25
2023-01-20T16:29:06.343Z,5.15
2023-01-20T16:31:34.440Z,4.35
2023-01-20T16:34:04.516Z,5.82
2023-01-20T16:36:32.899Z,5.55
2023-01-20T16:39:01.066Z,5.78
2023-01-20T16:41:33.428Z,5.63
2023-01-20T16:44:04.301Z,4.88
2023-01-20T16:46:36.221Z,5.22
2023-01-20T16:49:04.033Z,4.82
2023-01-20T16:51:33.575Z,4.90
2023-01-20T16:54:02.167Z,3.85
2023-01-20T16:56:35.412Z,4.47
2023-01-20T16:59:09.913Z,2.38
2023-01-20T17:04:24.026Z,3.88
2023-01-20T17:06:55.726Z,3.78
2023-01-20T17:09:26.447Z,4.30
2023-01-20T17:11:56.559Z,4.70
2023-01-20T17:14:25.673Z,5.03
2023-01-20T17:16:53.953Z,4.93
2023-01-20T17:19:21.083Z,5.28
2023-01-20T17:21:48.674Z,5.32
2023-01-20T17:24:17.671Z,5.15
2023-01-20T17:26:48.219Z,5.22
2023-01-20T17:29:21.883Z,5.67
2023-01-20T17:31:50.684Z,9.13
2023-01-20T17:34:25.312Z,5.30
2023-01-20T17:36:52.837Z,5.85
2023-01-20T17:39:22.918Z,3.88
2023-01-20T17:41:54.369Z,4.93
2023-01-20T17:44:26.076Z,4.85
2023-01-20T17:46:55.353Z,3.83
2023-01-20T17:49:28.933Z,3.40
2023-01-20T17:51:55.970Z,3.38
2023-01-20T17:54:27.846Z,11.15
2023-01-20T17:56:55.352Z,8.10
2023-01-20T17:59:24.150Z,11.32
2023-01-20T18:01:57.312Z,27.42
2023-01-20T18:04:24.838Z,12.73
2023-01-20T18:06:52.353Z,7.03
2023-01-20T18:09:19.503Z,5.55
2023-01-20T18:11:52.081Z,6.05
2023-01-20T18:14:20.716Z,8.07
2023-01-20T18:16:52.304Z,5.18
2023-01-20T18:19:21.818Z,6.63
2023-01-20T18:21:49.788Z,5.82
2023-01-20T18:24:18.627Z,6.68
2023-01-20T18:26:46.547Z,11.57
2023-01-20T18:29:17.863Z,12.30
2023-01-20T18:31:49.919Z,10.93
2023-01-20T18:34:19.553Z,7.72
2023-01-20T18:36:48.438Z,6.90
2023-01-20T18:39:19.095Z,5.60
2023-01-20T18:41:48.273Z,6.15
2023-01-20T18:44:15.926Z,5.60
2023-01-20T18:49:35.366Z,5.90
2023-01-20T18:58:10.970Z,4.82
2023-01-20T19:34:30.087Z,11.13
2023-01-20T19:37:23.549Z,11.00
2023-01-20T19:39:51.945Z,11.05
2023-01-20T19:45:10.641Z,12.05
2023-01-20T19:47:38.160Z,15.25
2023-01-20T19:50:10.324Z,13.93
2023-01-20T19:52:41.562Z,15.80
2023-01-20T19:55:34.331Z,17.27
2023-01-20T19:58:01.450Z,17.42
2023-01-20T20:00:33.932Z,18.52
2023-01-20T20:03:05.037Z,20.27
2023-01-20T20:05:44.625Z,19.52
2023-01-20T20:08:21.372Z,22.30
2023-01-20T20:10:48.820Z,22.60
2023-01-20T20:16:07.553Z,22.50
2023-01-20T20:18:35.027Z,18.67
2023-01-20T20:21:02.057Z,22.65
2023-01-20T20:23:31.639Z,23.05
2023-01-20T20:26:01.103Z,26.98
2023-01-20T20:28:36.936Z,28.08
2023-01-20T20:31:11.360Z,27.73
2023-01-20T20:33:49.133Z,29.98
2023-01-20T20:36:17.278Z,27.10
2023-01-20T20:38:51.376Z,24.55
2023-01-20T20:41:23.070Z,27.00
2023-01-20T20:43:54.249Z,24.80
2023-01-20T20:46:25.948Z,23.33
2023-01-20T20:49:02.546Z,22.08
2023-01-20T20:51:34.466Z,22.02
2023-01-20T20:54:03.177Z,22.33
2023-01-20T20:56:34.084Z,22.77
2023-01-20T20:59:03.797Z,18.25
2023-01-20T21:01:37.243Z,16.77
2023-01-20T21:04:04.897Z,19.05
2023-01-20T21:06:38.837Z,20.02
2023-01-20T21:09:07.174Z,18.30
2023-01-20T21:11:34.219Z,20.73
2023-01-20T21:14:03.364Z,19.33
2023-01-20T21:16:38.110Z,18.83
2023-01-20T21:19:06.174Z,19.02
2023-01-20T21:21:33.275Z,17.52
2023-01-20T21:24:01.282Z,17.52
2023-01-20T21:26:31.134Z,17.70
2023-01-20T21:29:02.801Z,16.45
2023-01-20T21:31:37.011Z,17.90
2023-01-20T21:34:09.161Z,17.55
2023-01-20T21:36:44.156Z,18.92
2023-01-20T21:39:14.391Z,19.77
2023-01-20T21:41:44.516Z,20.35
2023-01-20T21:44:41.639Z,19.63
2023-01-20T21:47:09.410Z,19.30
2023-01-20T21:49:55.941Z,19.25
2023-01-20T21:52:42.266Z,21.52
2023-01-20T21:55:21.937Z,23.55
2023-01-20T21:57:52.379Z,23.08
2023-01-20T22:00:22.066Z,24.63
2023-01-20T22:02:57.098Z,20.42
2023-01-20T22:05:49.909Z,21.55
2023-01-20T22:13:37.896Z,24.05
2023-01-20T22:16:32.840Z,24.15
2023-01-20T22:19:34.914Z,20.55
2023-01-20T22:22:06.513Z,21.42
2023-01-20T22:24:49.356Z,22.30
2023-01-20T22:27:17.333Z,23.98
2023-01-20T22:29:50.675Z,24.25
2023-01-20T22:32:22.995Z,22.85
2023-01-20T22:34:57.808Z,22.38
2023-01-20T22:37:27.922Z,21.08
2023-01-20T22:39:56.930Z,22.52
2023-01-20T22:42:29.179Z,21.50
2023-01-20T22:47:41.135Z,23.25
2023-01-20T22:50:09.378Z,23.42
2023-01-20T22:52:37.602Z,23.75
2023-01-20T22:55:07.111Z,24.05
2023-01-20T22:57:38.090Z,24.40
2023-01-20T23:00:13.108Z,24.70
2023-01-20T23:02:40.797Z,25.38
2023-01-20T23:05:12.472Z,29.00
2023-01-20T23:07:43.641Z,23.10
2023-01-20T23:10:34.549Z,24.40
2023-01-20T23:13:07.929Z,24.27
2023-01-20T23:15:40.455Z,25.98
2023-01-20T23:20:40.427Z,25.05
2023-01-20T23:23:13.629Z,25.85
2023-01-20T23:25:44.359Z,25.70
2023-01-20T23:28:15.080Z,27.05
2023-01-20T23:30:44.198Z,25.77
2023-01-20T23:37:14.731Z,24.63
2023-01-20T23:39:44.558Z,27.50
2023-01-20T23:42:13.916Z,27.08
2023-01-20T23:44:44.705Z,28.23
2023-01-20T23:47:13.141Z,28.98
2023-01-20T23:49:45.112Z,27.58
2023-01-20T23:53:26.683Z,26.88
2023-01-20T23:56:50.309Z,27.65
